Tim S. Dool — VGPY — position and weather

sailwx.info

Track history (hours):
 
Tides and Currents Weather Stations Pressure Air Temp Water Temp Dewpoint Dewpoint Depression Visibility Wind Speed Wind Dir Waves Ship Positions

Tim S. Dool

Last reported at 2017-Jun-24 15:00 UTC. Time now 2017-Jun-25 14:03 UTC.
Position N 47°18' W 090°18'.

Length 223 m; draft 8.1 m.

Type: Cargo ship. MMSI: 316001696.

Wind from 260 at 13 knots

Barometer 1013.0 mb
Air temperature 12.0 ° C
Visibility: greater than 10.8 NM

Date/timePositionNaut miles runAvg speedWind from/ knotsBaromVisibWave heightAir tempDewpointWater temp
2017-Jun-24 15:00N 47°18' W 090°18'5614.2 260 / 131013.010.8 12.0
2017-Jun-24 11:05N 47°01' W 091°36'112.2
2017-Jun-24 11:00N 47°01' W 091°37'2 4.1
2017-Jun-24 10:30N 47°01' W 091°40'0 0.1
2017-Jun-24 09:39N 47°01' W 091°40'0 0.0
2017-Jun-24 09:28N 47°01' W 091°40'0 0.0
2017-Jun-24 08:58N 47°01' W 091°40'0 0.0
2017-Jun-24 08:19N 47°01' W 091°40'0 0.0
2017-Jun-24 07:59N 47°01' W 091°40'0 0.0
2017-Jun-24 07:27N 47°01' W 091°40'0 0.0
2017-Jun-24 07:00N 47°01' W 091°40'0 0.0
2017-Jun-24 06:16N 47°01' W 091°40'0 0.0
2017-Jun-24 01:19N 47°01' W 091°40'0 1.1
2017-Jun-24 01:00N 47°01' W 091°40'11911.9
2017-Jun-23 15:00N 47°24' W 088°48'225 9.4 230 / 151002.010.8 9.0
2017-Jun-22 15:00N 45°54' W 083°48'2117.9 150 / 131010.0 5.4 15.0
2017-Jun-22 13:48N 45°35' W 083°33'412.8
2017-Jun-22 13:30N 45°32' W 083°30'190 8.4
2017-Jun-21 15:00N 42°24' W 082°54'155 3.0 100 / 51019.010.8 20.0
2017-Jun-19 12:00N 43°18' W 079°36'87 4.2 230 / 101009.010.8 20.0
2017-Jun-18 15:00N 42°12' W 080°54'159 6.6 200 / 81006.010.8 23.0
2017-Jun-17 15:00N 44°30' W 082°42'5712.1 190 / 81007.0 5.4 17.0
2017-Jun-17 10:14N 45°23' W 083°15'412.2
2017-Jun-17 09:54N 45°26' W 083°18'512.1
2017-Jun-17 09:30N 45°30' W 083°23'612.2
2017-Jun-17 09:00N 45°34' W 083°28'612.2
2017-Jun-17 08:30N 45°39' W 083°33'612.2
2017-Jun-17 08:00N 45°44' W 083°39'148 8.7
2017-Jun-16 15:00N 47°24' W 086°18'21812.2 200 / 71007.0 5.4 9.0
2017-Jun-15 21:11N 47°01' W 091°37'211.2
2017-Jun-15 21:00N 47°00' W 091°39'1 0.3
2017-Jun-15 18:09N 47°01' W 091°40'0 0.0
2017-Jun-15 17:58N 47°01' W 091°40'0 0.0
2017-Jun-15 17:30N 47°01' W 091°40'0 0.0
2017-Jun-15 15:19N 47°01' W 091°40'0 0.0
2017-Jun-15 15:00N 47°01' W 091°40'0 0.0
2017-Jun-15 14:30N 47°01' W 091°40'0 0.0
2017-Jun-15 12:55N 47°01' W 091°40'0 0.0
2017-Jun-15 11:42N 47°01' W 091°40'0 0.6
2017-Jun-15 11:30N 47°01' W 091°40'1 1.2
2017-Jun-15 11:00N 47°00' W 091°40'0 0.6
2017-Jun-15 10:30N 46°60' W 091°41'0 0.0
2017-Jun-15 10:00N 46°60' W 091°41'0 0.1
2017-Jun-15 09:30N 47°00' W 091°41'0 0.0
2017-Jun-15 09:00N 47°00' W 091°41'0 0.1
2017-Jun-15 08:30N 46°60' W 091°41'0 0.0
2017-Jun-15 08:00N 46°60' W 091°41'0 0.0
2017-Jun-15 07:30N 46°60' W 091°41'0 0.0
2017-Jun-15 07:00N 46°60' W 091°41'0 0.0
2017-Jun-15 06:30N 46°60' W 091°41'0 0.0
2017-Jun-15 06:00N 46°60' W 091°41'0 0.0
2017-Jun-15 05:30N 46°60' W 091°41'0 0.0
2017-Jun-15 05:00N 46°60' W 091°41'0 0.0
2017-Jun-15 04:30N 46°60' W 091°41'0 0.0
2017-Jun-15 04:00N 46°60' W 091°41'0 0.0
2017-Jun-15 03:30N 46°60' W 091°41'0 0.0
2017-Jun-15 03:00N 46°60' W 091°41'0 0.0
2017-Jun-15 02:30N 46°60' W 091°41'0 0.1
2017-Jun-15 02:00N 46°60' W 091°41'0 0.0
2017-Jun-15 01:30N 46°60' W 091°41'0 0.0
2017-Jun-15 01:00N 46°60' W 091°41'0 0.0
2017-Jun-15 00:30N 46°60' W 091°41'0 0.0
2017-Jun-15 00:00N 46°60' W 091°41'0 0.0
2017-Jun-14 23:30N 46°60' W 091°41'0 0.1
2017-Jun-14 23:00N 46°60' W 091°41'0 0.1
2017-Jun-14 22:30N 46°60' W 091°41'0 0.0
2017-Jun-14 22:00N 46°60' W 091°41'0 0.1
2017-Jun-14 21:30N 46°60' W 091°41'0 0.0
2017-Jun-14 21:00N 46°60' W 091°41'0 0.0
2017-Jun-14 20:30N 46°60' W 091°41'0 0.0
2017-Jun-14 20:00N 46°60' W 091°41'0 0.0
2017-Jun-14 19:30N 46°60' W 091°41'0 0.1
2017-Jun-14 19:00N 46°60' W 091°41'0 0.0
2017-Jun-14 18:30N 46°60' W 091°41'0 0.1
2017-Jun-14 18:00N 46°60' W 091°41'0 0.0
2017-Jun-14 17:30N 46°60' W 091°41'0 0.0
2017-Jun-14 17:00N 46°60' W 091°41'0 0.0
2017-Jun-14 16:30N 46°60' W 091°41'0 0.0
2017-Jun-14 16:00N 46°60' W 091°41'0 0.0
2017-Jun-14 15:30N 46°60' W 091°41'0 0.1
2017-Jun-14 15:00N 47°00' W 091°41'1208.0
2017-Jun-14 15:00N 47°00' W 091°42'   350 / 241010.010.8 8.0
Track history (hours):
 
Tides and Currents Weather Stations Pressure Air Temp Water Temp Dewpoint Dewpoint Depression Visibility Wind Speed Wind Dir Waves Ship Positions

Tim S. Dool

Last reported at 2017-Jun-24 15:00 UTC. Time now 2017-Jun-25 14:03 UTC.
Position N 47°18' W 090°18'.

Length 223 m; draft 8.1 m.

Type: Cargo ship. MMSI: 316001696.

Wind from 260 at 13 knots

Barometer 1013.0 mb
Air temperature 12.0 ° C
Visibility: greater than 10.8 NM

Date/timePositionNaut miles runAvg speedWind from/ knotsBaromVisibWave heightAir tempDewpointWater temp
2017-Jun-24 15:00N 47°18' W 090°18'5614.2 260 / 131013.010.8 12.0
2017-Jun-24 11:05N 47°01' W 091°36'112.2
2017-Jun-24 11:00N 47°01' W 091°37'2 4.1
2017-Jun-24 10:30N 47°01' W 091°40'0 0.1
2017-Jun-24 09:39N 47°01' W 091°40'0 0.0
2017-Jun-24 09:28N 47°01' W 091°40'0 0.0
2017-Jun-24 08:58N 47°01' W 091°40'0 0.0
2017-Jun-24 08:19N 47°01' W 091°40'0 0.0
2017-Jun-24 07:59N 47°01' W 091°40'0 0.0
2017-Jun-24 07:27N 47°01' W 091°40'0 0.0
2017-Jun-24 07:00N 47°01' W 091°40'0 0.0
2017-Jun-24 06:16N 47°01' W 091°40'0 0.0
2017-Jun-24 01:19N 47°01' W 091°40'0 1.1
2017-Jun-24 01:00N 47°01' W 091°40'11911.9
2017-Jun-23 15:00N 47°24' W 088°48'225 9.4 230 / 151002.010.8 9.0
2017-Jun-22 15:00N 45°54' W 083°48'2117.9 150 / 131010.0 5.4 15.0
2017-Jun-22 13:48N 45°35' W 083°33'412.8
2017-Jun-22 13:30N 45°32' W 083°30'190 8.4
2017-Jun-21 15:00N 42°24' W 082°54'155 3.0 100 / 51019.010.8 20.0
2017-Jun-19 12:00N 43°18' W 079°36'87 4.2 230 / 101009.010.8 20.0
2017-Jun-18 15:00N 42°12' W 080°54'159 6.6 200 / 81006.010.8 23.0
2017-Jun-17 15:00N 44°30' W 082°42'5712.1 190 / 81007.0 5.4 17.0
2017-Jun-17 10:14N 45°23' W 083°15'412.2
2017-Jun-17 09:54N 45°26' W 083°18'512.1
2017-Jun-17 09:30N 45°30' W 083°23'612.2
2017-Jun-17 09:00N 45°34' W 083°28'612.2
2017-Jun-17 08:30N 45°39' W 083°33'612.2
2017-Jun-17 08:00N 45°44' W 083°39'148 8.7
2017-Jun-16 15:00N 47°24' W 086°18'21812.2 200 / 71007.0 5.4 9.0
2017-Jun-15 21:11N 47°01' W 091°37'211.2
2017-Jun-15 21:00N 47°00' W 091°39'1 0.3
2017-Jun-15 18:09N 47°01' W 091°40'0 0.0
2017-Jun-15 17:58N 47°01' W 091°40'0 0.0
2017-Jun-15 17:30N 47°01' W 091°40'0 0.0
2017-Jun-15 15:19N 47°01' W 091°40'0 0.0
2017-Jun-15 15:00N 47°01' W 091°40'0 0.0
2017-Jun-15 14:30N 47°01' W 091°40'0 0.0
2017-Jun-15 12:55N 47°01' W 091°40'0 0.0
2017-Jun-15 11:42N 47°01' W 091°40'0 0.6
2017-Jun-15 11:30N 47°01' W 091°40'1 1.2
2017-Jun-15 11:00N 47°00' W 091°40'0 0.6
2017-Jun-15 10:30N 46°60' W 091°41'0 0.0
2017-Jun-15 10:00N 46°60' W 091°41'0 0.1
2017-Jun-15 09:30N 47°00' W 091°41'0 0.0
2017-Jun-15 09:00N 47°00' W 091°41'0 0.1
2017-Jun-15 08:30N 46°60' W 091°41'0 0.0
2017-Jun-15 08:00N 46°60' W 091°41'0 0.0
2017-Jun-15 07:30N 46°60' W 091°41'0 0.0
2017-Jun-15 07:00N 46°60' W 091°41'0 0.0
2017-Jun-15 06:30N 46°60' W 091°41'0 0.0
2017-Jun-15 06:00N 46°60' W 091°41'0 0.0
2017-Jun-15 05:30N 46°60' W 091°41'0 0.0
2017-Jun-15 05:00N 46°60' W 091°41'0 0.0
2017-Jun-15 04:30N 46°60' W 091°41'0 0.0
2017-Jun-15 04:00N 46°60' W 091°41'0 0.0
2017-Jun-15 03:30N 46°60' W 091°41'0 0.0
2017-Jun-15 03:00N 46°60' W 091°41'0 0.0
2017-Jun-15 02:30N 46°60' W 091°41'0 0.1
2017-Jun-15 02:00N 46°60' W 091°41'0 0.0
2017-Jun-15 01:30N 46°60' W 091°41'0 0.0
2017-Jun-15 01:00N 46°60' W 091°41'0 0.0
2017-Jun-15 00:30N 46°60' W 091°41'0 0.0
2017-Jun-15 00:00N 46°60' W 091°41'0 0.0
2017-Jun-14 23:30N 46°60' W 091°41'0 0.1
2017-Jun-14 23:00N 46°60' W 091°41'0 0.1
2017-Jun-14 22:30N 46°60' W 091°41'0 0.0
2017-Jun-14 22:00N 46°60' W 091°41'0 0.1
2017-Jun-14 21:30N 46°60' W 091°41'0 0.0
2017-Jun-14 21:00N 46°60' W 091°41'0 0.0
2017-Jun-14 20:30N 46°60' W 091°41'0 0.0
2017-Jun-14 20:00N 46°60' W 091°41'0 0.0
2017-Jun-14 19:30N 46°60' W 091°41'0 0.1
2017-Jun-14 19:00N 46°60' W 091°41'0 0.0
2017-Jun-14 18:30N 46°60' W 091°41'0 0.1
2017-Jun-14 18:00N 46°60' W 091°41'0 0.0
2017-Jun-14 17:30N 46°60' W 091°41'0 0.0
2017-Jun-14 17:00N 46°60' W 091°41'0 0.0
2017-Jun-14 16:30N 46°60' W 091°41'0 0.0
2017-Jun-14 16:00N 46°60' W 091°41'0 0.0
2017-Jun-14 15:30N 46°60' W 091°41'0 0.1
2017-Jun-14 15:00N 47°00' W 091°41'1208.0
2017-Jun-14 15:00N 47°00' W 091°42'   350 / 241010.010.8 8.0

Dump ship's entire track history